LEBA/ODB METAR and TAF weather

Enter ICAO airport designator
Station Type Date Time Source
LEBA METAR 2020/11/25 23:00 UTC NOAA

LEBA 252300Z AUTO 07008KT 9999 -RA NSC 12/11 Q1010


Station Type Date Time Source
LEBA Decoded METAR 2020/11/25 23:00 UTC NOAA

Cordoba / Aeropuerto, Spain (LEBA) 37-51N 004-51W 92M
Nov 25, 2020 - 06:00 PM EST / 2020.11.25 2300 UTC
Wind: from the ENE (070 degrees) at 9 MPH (8 KT):0
Visibility: greater than 7 mile(s):0
Weather: light rain
Temperature: 53 F (12 C)
Dew Point: 51 F (11 C)
Relative Humidity: 93%
Pressure (altimeter): 29.83 in. Hg (1010 hPa)
ob: LEBA 252300Z AUTO 07008KT 9999 -RA NSC 12/11 Q1010
cycle: 23

Station Type Date Time Source
LEBA TAF 2020/11/25 15:27 UTC NOAA

TAF TAF LEBA 251400Z 2515/2615 08005KT 9999 SCT010 BKN020 TX18/2614Z TN05/2607Z PROB40 2515/2609 3000 SHRA FEW030CB PROB30
TEMPO 2515/2521 2000 TSRA SCT030CB

Example: see airport list